Welcome to Northern Hawkes Bay. New Zealand.
PWS Header
      nz Flag



Hit Counter


W3C Valid W3C Valid logo


    Wairoa

Select any of the Stations below to visit their websites.










Historic Data from Weather Underground
Select the location of interest below. Wairoa is the default. Please have patience, this Data is slow to load in.
Northern Hawkes Bay Historical Data
Daily Summary for December 5, 2017 Units:  English    Metric   Both
« Previous Day
Next Day »
Daily Weekly Monthly Yearly Custom
  High: Low: Average:
Temperature: 88.5 °F 61.7 °F 73.8 °F
Dew Point: 65.5 °F 57.6 °F 61.3 °F
Humidity: 92% 37% 68%
Wind Speed: 7.6mph 0mph 1.6mph
Wind Gust: 11.4mph - -
Wind- - SSW
Pressure: 30 in 29.9 in -
Precipitation: 0 in    
Historical Graphs
 
 
Tabular Data for December 5, 2017
Time Temperature Dew Point Pressure Wind Wind Speed Wind Gust Humidity Rainfall Rate (Hourly) solar
00:02 63.9 °F 61 °F 30 in Calm     90% 0 in 0 W/m2
00:07 63.9 °F 61 °F 30 in Calm     90% 0 in 0 W/m2
00:12 64 °F 61.2 °F 30 in Calm   0.7 mph 90% 0 in 0 W/m2
00:17 64.2 °F 61.2 °F 30 in Calm   0.7 mph 90% 0 in 0 W/m2
00:22 64.4 °F 61.3 °F 30 in Calm     90% 0 in 0 W/m2
00:27 64.8 °F 61.9 °F 30 in Calm   0.7 mph 90% 0 in 0 W/m2
00:32 64.8 °F 61.5 °F 30 in Calm   0.7 mph 89% 0 in 0 W/m2
00:37 64.9 °F 61.3 °F 30 in Calm     88% 0 in 0 W/m2
00:42 64.9 °F 61 °F 30 in NW 0.7 mph 3.1 mph 87% 0 in 0 W/m2
00:47 64.9 °F 61 °F 30 in Calm   3.1 mph 87% 0 in 0 W/m2
00:52 64.8 °F 60.8 °F 30 in Calm   3.1 mph 87% 0 in 0 W/m2
00:57 64.8 °F 60.8 °F 30 in Calm   3.1 mph 87% 0 in 0 W/m2
01:03 64.8 °F 60.8 °F 30 in Calm   2.2 mph 87% 0 in 0 W/m2
01:08 64.8 °F 60.8 °F 30 in NNW 0.7 mph 2.2 mph 87% 0 in 0 W/m2
01:13 64.8 °F 60.8 °F 30 in Calm   2.2 mph 87% 0 in 0 W/m2
01:18 64.8 °F 60.8 °F 30 in Calm   1.6 mph 87% 0 in 0 W/m2
01:23 64.9 °F 61 °F 30 in Calm   1.6 mph 87% 0 in 0 W/m2
01:28 64.9 °F 61 °F 30 in Calm   1.6 mph 87% 0 in 0 W/m2
01:33 64.9 °F 61 °F 30 in NW 0.7 mph 2.2 mph 87% 0 in 0 W/m2
01:38 65.1 °F 61.2 °F 30 in Calm   3.8 mph 87% 0 in 0 W/m2
01:43 65.1 °F 61.2 °F 30 in NW 0.7 mph 3.8 mph 87% 0 in 0 W/m2
01:48 65.1 °F 61.2 °F 30 in Calm   3.8 mph 87% 0 in 0 W/m2
01:53 64.9 °F 61 °F 30 in North 1.6 mph 5.4 mph 87% 0 in 0 W/m2
01:58 65.1 °F 61.5 °F 30 in North 0.7 mph 5.4 mph 88% 0 in 0 W/m2
02:03 65.1 °F 61.5 °F 30 in North 1.6 mph 3.8 mph 88% 0 in 0 W/m2
02:08 65.1 °F 61.2 °F 30 in Calm   3.8 mph 87% 0 in 0 W/m2
02:13 65.1 °F 61.2 °F 30 in Calm   3.8 mph 87% 0 in 0 W/m2
02:18 64.9 °F 61 °F 30 in North 0.7 mph 3.8 mph 87% 0 in 0 W/m2
02:23 64.8 °F 61.2 °F 30 in Calm   3.8 mph 88% 0 in 0 W/m2
02:28 64.8 °F 61.2 °F 30 in NNW 0.7 mph 3.1 mph 88% 0 in 0 W/m2
02:33 64.8 °F 61.2 °F 30 in North 0.7 mph 3.1 mph 88% 0 in 0 W/m2
02:38 64.9 °F 61.3 °F 30 in Calm   4.5 mph 88% 0 in 0 W/m2
02:43 64.8 °F 61.2 °F 30 in NNW 0.7 mph 4.5 mph 88% 0 in 0 W/m2
02:48 64.8 °F 61.2 °F 30 in North 2.2 mph 3.8 mph 88% 0 in 0 W/m2
02:53 64.6 °F 61 °F 30 in Calm   4.5 mph 88% 0 in 0 W/m2
02:58 64.6 °F 61 °F 30 in NNW 0.7 mph 4.5 mph 88% 0 in 0 W/m2
03:03 64.4 °F 60.8 °F 30 in NNW 0.7 mph 4.5 mph 88% 0 in 0 W/m2
03:08 64 °F 60.4 °F 30 in NNW 0.7 mph 4.5 mph 88% 0 in 0 W/m2
03:13 63.9 °F 60.6 °F 30 in North 0.7 mph 3.8 mph 89% 0 in 0 W/m2
03:18 63.7 °F 60.4 °F 30 in Calm   3.8 mph 89% 0 in 0 W/m2
03:23 63.5 °F 60.3 °F 30 in North 0.7 mph 3.8 mph 89% 0 in 0 W/m2
03:28 63.5 °F 60.3 °F 30 in North 2.2 mph 3.8 mph 89% 0 in 0 W/m2
03:50 63.9 °F 59.9 °F 30 in North 0.7 mph 5.4 mph 87% 0 in 0 W/m2
03:55 63.9 °F 59.5 °F 30 in North 1.6 mph 5.4 mph 86% 0 in 0 W/m2
04:00 63.9 °F 59.5 °F 30 in North 1.6 mph 5.4 mph 86% 0 in 0 W/m2
04:06 63.9 °F 59.4 °F 30 in Calm   5.4 mph 85% 0 in 0 W/m2
04:11 63.7 °F 59.2 °F 30 in NNW 0.7 mph 4.5 mph 85% 0 in 0 W/m2
04:16 63.5 °F 58.8 °F 30 in North 0.7 mph 4.5 mph 85% 0 in 0 W/m2
04:21 63.3 °F 58.8 °F 30 in NNW 0.7 mph 3.8 mph 85% 0 in 0 W/m2
04:26 63.1 °F 58.8 °F 30 in NNW 0.7 mph 5.4 mph 86% 0 in 0 W/m2
04:31 63 °F 58.5 °F 30 in Calm   5.4 mph 85% 0 in 0 W/m2
04:36 62.8 °F 58.3 °F 30 in NNW 0.7 mph 3.8 mph 85% 0 in 0 W/m2
04:41 62.6 °F 57.9 °F 30 in NNW 0.7 mph 5.4 mph 85% 0 in 0 W/m2
04:46 62.6 °F 57.9 °F 30 in Calm   5.4 mph 85% 0 in 0 W/m2
04:51 62.6 °F 57.9 °F 30 in North 0.7 mph 3.8 mph 85% 0 in 0 W/m2
04:56 62.4 °F 58.3 °F 30 in NNW 0.7 mph 3.8 mph 86% 0 in 0 W/m2
05:01 62.1 °F 57.7 °F 30 in North 1.6 mph 3.1 mph 86% 0 in 0 W/m2
05:06 62.1 °F 57.6 °F 30 in North 3.1 mph 5.4 mph 85% 0 in 0 W/m2
05:11 62.1 °F 57.6 °F 30 in NNW 2.2 mph 5.4 mph 85% 0 in 0 W/m2
05:16 62.1 °F 57.7 °F 30 in NNW 0.7 mph 5.4 mph 86% 0 in 0 W/m2
05:21 62.1 °F 57.7 °F 30 in NNW 3.1 mph 6.9 mph 86% 0 in 0 W/m2
05:26 62.1 °F 57.7 °F 30 in NNW 1.6 mph 6.9 mph 86% 0 in 0 W/m2
05:31 62.1 °F 57.7 °F 30 in NNW 0.7 mph 6 mph 86% 0 in 0 W/m2
05:36 61.9 °F 57.7 °F 30 in North 1.6 mph 4.5 mph 86% 0 in 0 W/m2
05:41 61.9 °F 57.7 °F 30 in North 0.7 mph 4.5 mph 86% 0 in 1 W/m2
05:46 61.7 °F 57.6 °F 30 in North 0.7 mph 3.8 mph 86% 0 in 4 W/m2
05:51 61.9 °F 57.7 °F 30 in Calm   3.8 mph 86% 0 in 7 W/m2
05:56 62.1 °F 57.6 °F 30 in NNW 3.1 mph 6 mph 85% 0 in 12 W/m2
06:01 62.1 °F 57.6 °F 30 in NNW 2.2 mph 6 mph 85% 0 in 18 W/m2
06:06 62.1 °F 57.6 °F 30 in NNW 2.2 mph 6.9 mph 85% 0 in 22 W/m2
06:11 62.4 °F 57.9 °F 30 in NNW 2.2 mph 6.9 mph 85% 0 in 28 W/m2
06:16 62.4 °F 57.9 °F 30 in NNW 1.6 mph 5.4 mph 85% 0 in 36 W/m2
06:21 62.4 °F 58.3 °F 30 in NNW 1.6 mph 5.4 mph 86% 0 in 44 W/m2
06:26 63 °F 58.5 °F 30 in North 1.6 mph 6 mph 85% 0 in 57 W/m2
06:31 63.7 °F 58.8 °F 30 in North 1.6 mph 6 mph 84% 0 in 66 W/m2
06:36 64.2 °F 58.6 °F 30 in North 1.6 mph 6 mph 82% 0 in 75 W/m2
06:41 65.1 °F 59.2 °F 30 in North 1.6 mph 5.4 mph 81% 0 in 84 W/m2
06:46 65.8 °F 59.2 °F 30 in Calm   4.5 mph 79% 0 in 92 W/m2
06:51 66.4 °F 58.6 °F 30 in North 1.6 mph 4.5 mph 76% 0 in 101 W/m2
07:01 67.1 °F 58.8 °F 30 in North 1.6 mph 5.4 mph 75% 0 in 119 W/m2
07:06 67.5 °F 59.4 °F 30 in North 2.2 mph 6 mph 75% 0 in 129 W/m2
07:11 67.6 °F 59.2 °F 30 in NNE 3.1 mph 6.9 mph 74% 0 in 138 W/m2
07:16 67.8 °F 59.4 °F 30 in North 2.2 mph 7.6 mph 74% 0 in 147 W/m2
07:21 68.2 °F 59.2 °F 30 in Calm   7.6 mph 73% 0 in 158 W/m2
07:26 68.5 °F 59.2 °F 30 in NNW 1.6 mph 6 mph 72% 0 in 170 W/m2
07:31 68.9 °F 59.2 °F 30 in North 1.6 mph 6 mph 71% 0 in 181 W/m2
07:37 69.4 °F 59.7 °F 30 in North 0.7 mph 6 mph 71% 0 in 197 W/m2
07:42 69.8 °F 59.2 °F 30 in NNW 3.8 mph 6.9 mph 69% 0 in 208 W/m2
07:47 69.8 °F 59.2 °F 30 in NNW 0.7 mph 6.9 mph 69% 0 in 219 W/m2
07:52 70.7 °F 59.5 °F 30 in North 3.1 mph 6 mph 68% 0 in 232 W/m2
07:57 70.5 °F 58.6 °F 30 in North 1.6 mph 7.6 mph 66% 0 in 242 W/m2
08:02 70.9 °F 59 °F 30 in North 1.6 mph 7.6 mph 66% 0 in 257 W/m2
08:07 71.2 °F 59.4 °F 30 in North 3.8 mph 8.3 mph 66% 0 in 271 W/m2
08:12 71.4 °F 59.5 °F 30 in North 3.8 mph 8.3 mph 66% 0 in 282 W/m2
08:17 71.6 °F 59.2 °F 30 in North 2.2 mph 7.6 mph 65% 0 in 295 W/m2
08:22 72.3 °F 59.5 °F 30 in North 4.5 mph 6.9 mph 64% 0 in 311 W/m2
08:27 73.2 °F 60.3 °F 30 in North 3.8 mph 6.9 mph 64% 0 in 324 W/m2
08:32 73.2 °F 59.5 °F 30 in NNW 3.1 mph 7.6 mph 62% 0 in 338 W/m2
08:37 73.2 °F 59.9 °F 30 in NNW 2.2 mph 7.6 mph 63% 0 in 354 W/m2
08:42 73.8 °F 61.3 °F 30 in NNW 3.1 mph 7.6 mph 65% 0 in 368 W/m2
08:47 74.1 °F 60.8 °F 30 in North 2.2 mph 7.6 mph 63% 0 in 383 W/m2
08:57 75.2 °F 61.3 °F 30 in North 3.1 mph 6.9 mph 62% 0 in 412 W/m2
09:02 75.9 °F 61.2 °F 30 in NNE 3.1 mph 6 mph 60% 0 in 428 W/m2
09:07 76.6 °F 61.9 °F 30 in NNE 1.6 mph 5.4 mph 60% 0 in 446 W/m2
09:12 77.4 °F 61.5 °F 30 in NNE 2.2 mph 6.9 mph 58% 0 in 464 W/m2
09:17 77 °F 61.2 °F 30 in North 2.2 mph 7.6 mph 58% 0 in 482 W/m2
09:22 76.6 °F 60.8 °F 30 in North 4.5 mph 7.6 mph 58% 0 in 499 W/m2
09:27 77.5 °F 61.5 °F 30 in NNE 0.7 mph 6.9 mph 58% 0 in 515 W/m2
09:32 78.3 °F 61.9 °F 30 in NNE 3.8 mph 6 mph 57% 0 in 534 W/m2
09:37 77.9 °F 61.5 °F 30 in NNW 4.5 mph 7.6 mph 57% 0 in 553 W/m2
09:42 77.7 °F 61.9 °F 30 in NNW 1.6 mph 7.6 mph 58% 0 in 569 W/m2
09:47 77.7 °F 60.8 °F 30 in North 3.8 mph 7.6 mph 56% 0 in 592 W/m2
09:52 77.7 °F 61.3 °F 30 in North 1.6 mph 7.6 mph 57% 0 in 614 W/m2
09:57 78.1 °F 61.2 °F 30 in NNW 0.7 mph 6.9 mph 56% 0 in 638 W/m2
10:02 78.4 °F 62.4 °F 30 in Calm   6 mph 58% 0 in 661 W/m2
10:07 80.1 °F 62.1 °F 30 in Calm   4.5 mph 54% 0 in 680 W/m2
10:12 80.1 °F 61.3 °F 30 in Calm   4.5 mph 53% 0 in 696 W/m2
10:17 81.7 °F 62.4 °F 30 in NE 0.7 mph 5.4 mph 52% 0 in 710 W/m2
10:22 81.1 °F 60.8 °F 30 in Calm   5.4 mph 50% 0 in 723 W/m2
10:27 80.8 °F 61 °F 30 in Calm   5.4 mph 51% 0 in 736 W/m2
10:32 81.9 °F 63.1 °F 30 in Calm   5.4 mph 53% 0 in 752 W/m2
10:37 82.4 °F 64 °F 30 in Calm   4.5 mph 54% 0 in 759 W/m2
10:42 81.5 °F 63.3 °F 30 in Calm   4.5 mph 54% 0 in 768 W/m2
10:47 80.6 °F 62.4 °F 30 in SSE 3.1 mph 6.9 mph 54% 0 in 774 W/m2
10:52 79.7 °F 63.1 °F 30 in SSE 1.6 mph 6.9 mph 57% 0 in 777 W/m2
10:57 79.3 °F 62.8 °F 29.9 in SE 0.7 mph 6 mph 57% 0 in 784 W/m2
11:02 79.7 °F 63.1 °F 29.9 in SSE 2.2 mph 6 mph 57% 0 in 793 W/m2
11:07 79.9 °F 63.3 °F 29.9 in SSE 2.2 mph 6 mph 57% 0 in 796 W/m2
11:12 79.7 °F 62.1 °F 29.9 in SE 4.5 mph 7.6 mph 55% 0 in 806 W/m2
11:17 79 °F 62.4 °F 29.9 in SSE 1.6 mph 7.6 mph 57% 0 in 809 W/m2
11:22 78.6 °F 63.7 °F 29.9 in SSE 0.7 mph 7.6 mph 60% 0 in 812 W/m2
11:27 79.3 °F 62.8 °F 29.9 in South 5.4 mph 6.9 mph 57% 0 in 819 W/m2
11:32 79.2 °F 63.1 °F 29.9 in South 3.8 mph 8.3 mph 58% 0 in 823 W/m2
11:37 79.3 °F 63.3 °F 29.9 in South 3.1 mph 8.3 mph 58% 0 in 828 W/m2
11:42 79.9 °F 62.8 °F 29.9 in South 2.2 mph 6.9 mph 56% 0 in 832 W/m2
11:47 79.9 °F 62.2 °F 29.9 in South 3.1 mph 6.9 mph 55% 0 in 840 W/m2
11:52 79.5 °F 62.4 °F 29.9 in South 3.1 mph 6.9 mph 56% 0 in 841 W/m2
11:57 79.7 °F 62.1 °F 29.9 in SSE 3.8 mph 7.6 mph 55% 0 in 844 W/m2
12:02 79.9 °F 61.9 °F 29.9 in SSE 3.1 mph 7.6 mph 54% 0 in 845 W/m2
12:07 79.9 °F 61.9 °F 29.9 in SSE 2.2 mph 7.6 mph 54% 0 in 846 W/m2
12:12 80.6 °F 62.4 °F 29.9 in SSE 2.2 mph 7.6 mph 54% 0 in 850 W/m2
12:17 81.5 °F 62.8 °F 29.9 in SE 4.5 mph 9.2 mph 53% 0 in 856 W/m2
12:22 81.7 °F 62.4 °F 29.9 in SE 2.2 mph 9.2 mph 52% 0 in 854 W/m2
12:27 81 °F 62.2 °F 29.9 in SSE 3.8 mph 8.3 mph 53% 0 in 853 W/m2
12:32 80.6 °F 63 °F 29.9 in SSE 3.1 mph 8.3 mph 55% 0 in 851 W/m2
12:37 80.6 °F 63 °F 29.9 in SSE 1.6 mph 7.6 mph 55% 0 in 852 W/m2
12:42 81 °F 62.2 °F 29.9 in SSE 3.8 mph 7.6 mph 53% 0 in 851 W/m2
12:47 80.8 °F 62.6 °F 29.9 in SSE 2.2 mph 6.9 mph 54% 0 in 849 W/m2
12:52 80.6 °F 62.4 °F 29.9 in SSE 2.2 mph 8.3 mph 54% 0 in 844 W/m2
12:57 80.8 °F 63.1 °F 29.9 in Calm   8.3 mph 55% 0 in 840 W/m2
13:02 81.3 °F 63.1 °F 29.9 in SE 3.1 mph 7.6 mph 54% 0 in 839 W/m2
13:07 81.7 °F 63 °F 29.9 in SE 0.7 mph 7.6 mph 53% 0 in 838 W/m2
13:12 82.2 °F 63 °F 29.9 in SSE 3.1 mph 6 mph 52% 0 in 834 W/m2
13:33 83.1 °F 62.1 °F 29.9 in SE 0.7 mph 7.6 mph 49% 0 in 822 W/m2
13:38 83.1 °F 62.1 °F 29.9 in SE 2.2 mph 7.6 mph 49% 0 in 816 W/m2
13:43 83.3 °F 61 °F 29.9 in SE 1.6 mph 9.2 mph 47% 0 in 812 W/m2
13:48 83.1 °F 61 °F 29.9 in SE 0.7 mph 9.2 mph 47% 0 in 804 W/m2
13:53 83.7 °F 60.6 °F 29.9 in ESE 3.1 mph 7.6 mph 46% 0 in 798 W/m2
13:58 83.1 °F 59.5 °F 29.9 in ESE 0.7 mph 8.3 mph 45% 0 in 792 W/m2
14:03 84 °F 61.2 °F 29.9 in ESE 2.2 mph 8.3 mph 46% 0 in 788 W/m2
14:08 84 °F 60.4 °F 29.9 in ESE 3.8 mph 9.8 mph 45% 0 in 782 W/m2
14:13 82.9 °F 59.5 °F 29.9 in SE 1.6 mph 9.8 mph 45% 0 in 769 W/m2
14:18 83.5 °F 60.6 °F 29.9 in SE 2.2 mph 8.3 mph 46% 0 in 766 W/m2
14:23 83.3 °F 59.7 °F 29.9 in ESE 3.1 mph 9.8 mph 45% 0 in 758 W/m2
14:28 83.3 °F 59.7 °F 29.9 in ESE 0.7 mph 9.8 mph 45% 0 in 750 W/m2
14:33 83.7 °F 60.1 °F 29.9 in ESE 3.8 mph 8.3 mph 45% 0 in 743 W/m2
14:38 82.9 °F 58.8 °F 29.9 in ESE 3.1 mph 9.2 mph 44% 0 in 736 W/m2
14:43 83.5 °F 58.6 °F 29.9 in ESE 3.8 mph 9.2 mph 43% 0 in 728 W/m2
14:48 83.8 °F 58.3 °F 29.9 in SE 4.5 mph 8.3 mph 42% 0 in 724 W/m2
14:53 84 °F 59.2 °F 29.9 in SE 1.6 mph 8.3 mph 43% 0 in 716 W/m2
14:58 84.7 °F 60.4 °F 29.9 in ESE 3.1 mph 8.3 mph 44% 0 in 711 W/m2
15:03 84.9 °F 60.1 °F 29.9 in ESE 1.6 mph 9.8 mph 43% 0 in 704 W/m2
15:08 85.3 °F 61 °F 29.9 in SE 3.8 mph 9.8 mph 44% 0 in 696 W/m2
15:13 85.3 °F 59.5 °F 29.9 in SE 0.7 mph 6.9 mph 42% 0 in 686 W/m2
15:18 86 °F 61 °F 29.9 in ESE 4.5 mph 9.2 mph 43% 0 in 674 W/m2
15:19 85.3 °F 61 °F 29.9 in East 3.1 mph 9.2 mph 44% 0 in 673 W/m2
15:24 85.3 °F 61 °F 29.9 in ESE 3.8 mph 9.2 mph 44% 0 in 663 W/m2
15:29 84.9 °F 60.6 °F 29.9 in ESE 2.2 mph 8.3 mph 44% 0 in 648 W/m2
15:34 84.9 °F 60.6 °F 29.9 in ESE 7.6 mph 10.7 mph 44% 0 in 640 W/m2
15:39 84.4 °F 60.8 °F 29.9 in ESE 6 mph 10.7 mph 45% 0 in 626 W/m2
15:44 84.6 °F 61.5 °F 29.9 in East 3.1 mph 9.2 mph 46% 0 in 614 W/m2
15:49 84.9 °F 61.9 °F 29.9 in ESE 2.2 mph 9.2 mph 46% 0 in 607 W/m2
15:54 85.3 °F 62.8 °F 29.9 in ESE 2.2 mph 8.3 mph 47% 0 in 597 W/m2
15:59 86 °F 63 °F 29.9 in ESE 2.2 mph 8.3 mph 46% 0 in 588 W/m2
16:05 85.3 °F 62.2 °F 29.9 in ESE 0.7 mph 8.3 mph 46% 0 in 573 W/m2
16:10 86 °F 62.2 °F 29.9 in East 2.2 mph 8.3 mph 45% 0 in 561 W/m2
16:16 86 °F 61 °F 29.9 in East 5.4 mph 9.8 mph 43% 0 in 548 W/m2
16:20 85.3 °F 61.5 °F 29.9 in ESE 4.5 mph 9.8 mph 45% 0 in 536 W/m2
16:26 85.3 °F 61 °F 29.9 in ESE 1.6 mph 11.4 mph 44% 0 in 518 W/m2
16:31 86.7 °F 61 °F 29.9 in ESE 2.2 mph 11.4 mph 42% 0 in 511 W/m2
16:36 87.3 °F 59.4 °F 29.9 in ESE 1.6 mph 7.6 mph 39% 0 in 500 W/m2
16:41 87.1 °F 59.9 °F 29.9 in SE 3.1 mph 7.6 mph 40% 0 in 488 W/m2
16:46 87.1 °F 59.9 °F 29.9 in SE 3.8 mph 7.6 mph 40% 0 in 474 W/m2
16:51 88.3 °F 60.3 °F 29.9 in Calm   7.6 mph 39% 0 in 462 W/m2
16:56 88.5 °F 59 °F 29.9 in East 3.8 mph 6.9 mph 37% 0 in 448 W/m2
17:01 88.3 °F 59.5 °F 29.9 in ESE 2.2 mph 6.9 mph 38% 0 in 436 W/m2
17:06 87.6 °F 59.7 °F 29.9 in ESE 1.6 mph 8.3 mph 39% 0 in 419 W/m2
17:11 87.4 °F 60.3 °F 29.9 in ESE 2.2 mph 8.3 mph 40% 0 in 405 W/m2
17:16 88 °F 60.1 °F 29.9 in ESE 0.7 mph 6.9 mph 39% 0 in 388 W/m2
17:21 88 °F 60.6 °F 29.9 in SE 1.6 mph 5.4 mph 40% 0 in 375 W/m2
17:26 88.2 °F 60.1 °F 29.9 in SE 1.6 mph 6.9 mph 39% 0 in 365 W/m2
17:31 88 °F 60.1 °F 29.9 in SE 5.4 mph 10.7 mph 39% 0 in 351 W/m2
17:36 86.4 °F 61.3 °F 29.9 in SE 3.8 mph 10.7 mph 43% 0 in 338 W/m2
17:41 86.2 °F 61.9 °F 29.9 in SE 2.2 mph 10.7 mph 44% 0 in 322 W/m2
17:46 86.7 °F 63 °F 29.9 in SE 0.7 mph 8.3 mph 45% 0 in 304 W/m2
17:51 86.2 °F 62.4 °F 29.9 in SE 1.6 mph 8.3 mph 45% 0 in 294 W/m2
17:56 86 °F 62.2 °F 29.9 in SE 3.1 mph 8.3 mph 45% 0 in 248 W/m2
18:01 85.1 °F 62.1 °F 29.9 in SE 3.8 mph 7.6 mph 46% 0 in 173 W/m2
18:06 83.3 °F 61 °F 29.9 in SE 2.2 mph 8.3 mph 47% 0 in 95 W/m2
18:11 81.7 °F 60.6 °F 29.9 in SE 0.7 mph 8.3 mph 49% 0 in 97 W/m2
18:16 81 °F 61.2 °F 29.9 in SE 0.7 mph 7.6 mph 51% 0 in 104 W/m2
18:21 80.8 °F 61 °F 29.9 in Calm   7.6 mph 51% 0 in 126 W/m2
18:26 81.9 °F 62.6 °F 29.9 in Calm   4.5 mph 52% 0 in 152 W/m2
18:31 83.5 °F 62.4 °F 29.9 in ESE 3.1 mph 6 mph 49% 0 in 199 W/m2
18:36 82.6 °F 61 °F 29.9 in East 4.5 mph 7.6 mph 48% 0 in 163 W/m2
18:41 81 °F 60.6 °F 29.9 in East 4.5 mph 9.2 mph 50% 0 in 80 W/m2
18:46 80.2 °F 61.5 °F 29.9 in East 4.5 mph 9.2 mph 53% 0 in 147 W/m2
18:51 79.7 °F 61.2 °F 29.9 in ENE 0.7 mph 8.3 mph 53% 0 in 79 W/m2
18:56 80.4 °F 62.2 °F 29.9 in East 2.2 mph 6.9 mph 54% 0 in 129 W/m2
19:01 80.2 °F 61.5 °F 29.9 in East 1.6 mph 7.6 mph 53% 0 in 114 W/m2
19:06 80.8 °F 62.1 °F 29.9 in East 1.6 mph 7.6 mph 53% 0 in 113 W/m2
19:11 80.4 °F 62.2 °F 29.9 in Calm   6 mph 54% 0 in 95 W/m2
19:16 80.8 °F 62.1 °F 29.9 in Calm   6 mph 53% 0 in 76 W/m2
19:21 80.6 °F 62.4 °F 29.9 in Calm   4.5 mph 54% 0 in 66 W/m2
19:26 79.9 °F 63.9 °F 29.9 in Calm   3.1 mph 58% 0 in 56 W/m2
19:31 79.2 °F 64 °F 29.9 in Calm   1.6 mph 60% 0 in 52 W/m2
19:36 79 °F 63.5 °F 29.9 in Calm   1.6 mph 59% 0 in 42 W/m2
19:41 78.3 °F 64.8 °F 29.9 in Calm   1.6 mph 63% 0 in 33 W/m2
19:46 76.6 °F 64.6 °F 29.9 in Calm   0.7 mph 66% 0 in 24 W/m2
19:51 74.8 °F 64 °F 29.9 in Calm   1.6 mph 69% 0 in 18 W/m2
19:56 73.2 °F 63.7 °F 29.9 in Calm   2.2 mph 72% 0 in 13 W/m2
20:01 72.1 °F 63.3 °F 29.9 in Calm   2.2 mph 74% 0 in 10 W/m2
20:06 71.4 °F 63.9 °F 29.9 in Calm   2.2 mph 77% 0 in 7 W/m2
20:11 71.1 °F 63.9 °F 29.9 in Calm   2.2 mph 78% 0 in 4 W/m2
20:16 70.5 °F 63.7 °F 29.9 in Calm   1.6 mph 79% 0 in 3 W/m2
20:26 70 °F 63.7 °F 29.9 in Calm   0.7 mph 80% 0 in 0 W/m2
20:31 70 °F 63.7 °F 29.9 in Calm   0.7 mph 80% 0 in 0 W/m2
20:36 70 °F 63.7 °F 29.9 in Calm   0.7 mph 80% 0 in 0 W/m2
20:41 70 °F 63.7 °F 29.9 in Calm     80% 0 in 0 W/m2
20:46 70 °F 63.9 °F 29.9 in Calm     81% 0 in 0 W/m2
20:51 70 °F 63.9 °F 29.9 in SSW 1.6 mph 4.5 mph 81% 0 in 0 W/m2
20:56 69.4 °F 63.7 °F 29.9 in SW 3.1 mph 9.2 mph 82% 0 in 0 W/m2
21:01 68.9 °F 63.7 °F 29.9 in SW 4.5 mph 9.2 mph 83% 0 in 0 W/m2
21:06 68.9 °F 63.7 °F 29.9 in SW 3.8 mph 6.9 mph 83% 0 in 0 W/m2
21:11 68.9 °F 63.9 °F 29.9 in Calm   6.9 mph 84% 0 in 0 W/m2
21:16 68.9 °F 63.9 °F 29.9 in Calm   5.4 mph 84% 0 in 0 W/m2
21:21 68.9 °F 63.9 °F 29.9 in Calm   4.5 mph 84% 0 in 0 W/m2
21:26 68.9 °F 63.9 °F 29.9 in Calm   4.5 mph 84% 0 in 0 W/m2
21:31 68.9 °F 63.9 °F 29.9 in SSW 1.6 mph 3.8 mph 84% 0 in 0 W/m2
21:36 68.9 °F 63.7 °F 29.9 in SW 3.1 mph 6 mph 83% 0 in 0 W/m2
21:41 69.3 °F 63.9 °F 29.9 in SW 1.6 mph 6 mph 83% 0 in 0 W/m2
21:46 69.3 °F 63.9 °F 29.9 in Calm   6 mph 83% 0 in 0 W/m2
21:51 68.9 °F 63.7 °F 29.9 in Calm   6 mph 83% 0 in 0 W/m2
21:57 68.9 °F 63.9 °F 29.9 in Calm   1.6 mph 84% 0 in 0 W/m2
22:02 68.7 °F 64 °F 29.9 in Calm   1.6 mph 85% 0 in 0 W/m2
22:07 68.5 °F 63.9 °F 29.9 in Calm   3.1 mph 85% 0 in 0 W/m2
22:17 68.7 °F 64.8 °F 29.9 in Calm   4.5 mph 87% 0 in 0 W/m2
22:22 68.5 °F 64.6 °F 29.9 in Calm   5.4 mph 87% 0 in 0 W/m2
22:27 68.5 °F 64.6 °F 29.9 in Calm   5.4 mph 87% 0 in 0 W/m2
22:32 68.4 °F 64.4 °F 29.9 in Calm     87% 0 in 0 W/m2
22:37 68.2 °F 64.2 °F 29.9 in Calm     87% 0 in 0 W/m2
22:42 68.4 °F 64.4 °F 29.9 in Calm     87% 0 in 0 W/m2
22:47 68.4 °F 64.8 °F 29.9 in Calm   0.7 mph 88% 0 in 0 W/m2
22:52 68.2 °F 64.6 °F 29.9 in WSW 0.7 mph 3.8 mph 88% 0 in 0 W/m2
22:57 68.2 °F 64.6 °F 29.9 in SW 0.7 mph 4.5 mph 88% 0 in 0 W/m2
23:02 68.2 °F 64.8 °F 29.9 in SW 2.2 mph 4.5 mph 89% 0 in 0 W/m2
23:07 68.4 °F 64.9 °F 29.9 in SW 0.7 mph 4.5 mph 89% 0 in 0 W/m2
23:12 68.2 °F 65.1 °F 29.9 in Calm   4.5 mph 90% 0 in 0 W/m2
23:17 68 °F 64.9 °F 29.9 in SW 1.6 mph 3.1 mph 90% 0 in 0 W/m2
23:22 67.8 °F 65.1 °F 30 in SW 0.7 mph 3.1 mph 91% 0 in 0 W/m2
23:27 67.8 °F 65.5 °F 30 in WSW 2.2 mph 3.8 mph 92% 0 in 0 W/m2
23:32 67.8 °F 65.5 °F 30 in WSW 1.6 mph 3.8 mph 92% 0 in 0 W/m2
23:37 67.6 °F 65.3 °F 30 in WSW 0.7 mph 3.8 mph 92% 0 in 0 W/m2
23:42 67.6 °F 65.3 °F 30 in Calm   3.8 mph 92% 0 in 0 W/m2
23:47 67.5 °F 65.1 °F 29.9 in Calm   3.8 mph 92% 0 in 0 W/m2
23:52 67.3 °F 64.9 °F 30 in Calm   1.6 mph 92% 0 in 0 W/m2
23:57 67.3 °F 64.9 °F 30 in SW 0.7 mph 2.2 mph 92% 0 in 0 W/m2
Northern Hawkes Bay. New Zealand Historic Data
Compliments of Weather Underground - 2.25 mb